sensor_id;sensor_type;location;lat;lon;timestamp;pressure;altitude;pressure_sealevel;temperature;humidity
64844;BME280;51310;52.198;5.422;2023-08-01T00:00:08;99711.97;;;15.29;85.10
64844;BME280;51310;52.198;5.422;2023-08-01T00:02:35;99687.00;;;15.18;84.95
64844;BME280;51310;52.198;5.422;2023-08-01T00:05:01;99720.66;;;15.40;85.03
64844;BME280;51310;52.198;5.422;2023-08-01T00:07:28;99713.44;;;15.41;84.82
64844;BME280;51310;52.198;5.422;2023-08-01T00:09:54;99720.88;;;15.47;84.91
64844;BME280;51310;52.198;5.422;2023-08-01T00:12:20;99716.34;;;15.48;84.85
64844;BME280;51310;52.198;5.422;2023-08-01T00:14:47;99696.34;;;15.32;84.92
64844;BME280;51310;52.198;5.422;2023-08-01T00:17:13;99716.44;;;15.38;84.92
64844;BME280;51310;52.198;5.422;2023-08-01T00:19:39;99719.19;;;15.46;85.05
64844;BME280;51310;52.198;5.422;2023-08-01T00:22:05;99695.56;;;15.40;85.04
64844;BME280;51310;52.198;5.422;2023-08-01T00:24:31;99715.19;;;15.50;85.02
64844;BME280;51310;52.198;5.422;2023-08-01T00:26:57;99707.19;;;15.40;85.22
64844;BME280;51310;52.198;5.422;2023-08-01T00:29:23;99714.81;;;15.45;85.20
64844;BME280;51310;52.198;5.422;2023-08-01T00:31:49;99710.75;;;15.41;85.36
64844;BME280;51310;52.198;5.422;2023-08-01T00:34:15;99681.00;;;15.25;85.66
64844;BME280;51310;52.198;5.422;2023-08-01T00:36:41;99688.44;;;15.31;85.81
64844;BME280;51310;52.198;5.422;2023-08-01T00:39:07;99690.91;;;15.24;86.19
64844;BME280;51310;52.198;5.422;2023-08-01T00:41:33;99672.47;;;15.11;86.23
64844;BME280;51310;52.198;5.422;2023-08-01T00:43:59;99661.16;;;15.08;86.39
64844;BME280;51310;52.198;5.422;2023-08-01T00:46:24;99655.25;;;15.04;86.61
64844;BME280;51310;52.198;5.422;2023-08-01T00:48:50;99673.22;;;15.22;86.71
64844;BME280;51310;52.198;5.422;2023-08-01T00:51:18;99661.38;;;15.14;86.67
64844;BME280;51310;52.198;5.422;2023-08-01T00:53:44;99670.84;;;15.18;86.92
64844;BME280;51310;52.198;5.422;2023-08-01T00:56:11;99652.25;;;15.07;86.83
64844;BME280;51310;52.198;5.422;2023-08-01T00:58:37;99654.25;;;15.05;86.99
64844;BME280;51310;52.198;5.422;2023-08-01T01:01:03;99647.31;;;15.03;86.97
64844;BME280;51310;52.198;5.422;2023-08-01T01:03:30;99639.72;;;14.98;87.04
64844;BME280;51310;52.198;5.422;2023-08-01T01:06:20;99641.03;;;14.94;87.26
64844;BME280;51310;52.198;5.422;2023-08-01T01:08:50;99624.44;;;14.81;87.31
64844;BME280;51310;52.198;5.422;2023-08-01T01:11:16;99634.72;;;14.85;87.63
64844;BME280;51310;52.198;5.422;2023-08-01T01:13:42;99621.97;;;14.69;87.56
64844;BME280;51310;52.198;5.422;2023-08-01T01:16:08;99642.09;;;14.83;87.75
64844;BME280;51310;52.198;5.422;2023-08-01T01:18:33;99642.56;;;14.78;87.68
64844;BME280;51310;52.198;5.422;2023-08-01T01:20:59;99641.56;;;14.80;87.84
64844;BME280;51310;52.198;5.422;2023-08-01T01:23:27;99635.78;;;14.74;87.83
64844;BME280;51310;52.198;5.422;2023-08-01T01:25:54;99634.09;;;14.73;87.94
64844;BME280;51310;52.198;5.422;2023-08-01T01:28:22;99628.94;;;14.62;88.13
64844;BME280;51310;52.198;5.422;2023-08-01T01:30:51;99641.38;;;14.63;88.14
64844;BME280;51310;52.198;5.422;2023-08-01T01:33:18;99645.31;;;14.69;88.27
64844;BME280;51310;52.198;5.422;2023-08-01T01:35:44;99640.09;;;14.67;88.34
64844;BME280;51310;52.198;5.422;2023-08-01T01:38:10;99631.78;;;14.61;88.39
64844;BME280;51310;52.198;5.422;2023-08-01T01:40:36;99628.25;;;14.60;88.35
64844;BME280;51310;52.198;5.422;2023-08-01T01:43:02;99639.72;;;14.62;88.45
64844;BME280;51310;52.198;5.422;2023-08-01T01:45:28;99621.06;;;14.51;88.34
64844;BME280;51310;52.198;5.422;2023-08-01T01:47:54;99632.09;;;14.57;88.36
64844;BME280;51310;52.198;5.422;2023-08-01T01:50:20;99611.94;;;14.44;88.42
64844;BME280;51310;52.198;5.422;2023-08-01T01:52:46;99631.50;;;14.54;88.65
64844;BME280;51310;52.198;5.422;2023-08-01T01:55:12;99617.69;;;14.49;88.64
64844;BME280;51310;52.198;5.422;2023-08-01T01:57:38;99628.00;;;14.53;88.53
64844;BME280;51310;52.198;5.422;2023-08-01T02:00:05;99635.63;;;14.58;88.67
64844;BME280;51310;52.198;5.422;2023-08-01T02:02:31;99631.25;;;14.57;88.59
64844;BME280;51310;52.198;5.422;2023-08-01T02:04:57;99633.38;;;14.53;88.64
64844;BME280;51310;52.198;5.422;2023-08-01T02:07:23;99631.69;;;14.52;88.73
64844;BME280;51310;52.198;5.422;2023-08-01T02:09:49;99626.59;;;14.49;88.57
64844;BME280;51310;52.198;5.422;2023-08-01T02:12:15;99622.94;;;14.50;88.60
64844;BME280;51310;52.198;5.422;2023-08-01T02:14:41;99623.75;;;14.51;88.54
64844;BME280;51310;52.198;5.422;2023-08-01T02:17:07;99621.38;;;14.48;88.65
64844;BME280;51310;52.198;5.422;2023-08-01T02:19:33;99622.38;;;14.47;88.42
64844;BME280;51310;52.198;5.422;2023-08-01T02:21:59;99604.56;;;14.46;88.39
64844;BME280;51310;52.198;5.422;2023-08-01T02:24:25;99619.38;;;14.50;88.61
64844;BME280;51310;52.198;5.422;2023-08-01T02:26:51;99614.00;;;14.50;88.40
64844;BME280;51310;52.198;5.422;2023-08-01T02:29:17;99607.50;;;14.52;88.44
64844;BME280;51310;52.198;5.422;2023-08-01T02:31:43;99616.50;;;14.61;88.59
64844;BME280;51310;52.198;5.422;2023-08-01T02:34:09;99578.38;;;14.48;88.45
64844;BME280;51310;52.198;5.422;2023-08-01T02:36:35;99619.81;;;14.73;88.42
64844;BME280;51310;52.198;5.422;2023-08-01T02:39:00;99605.97;;;14.68;88.25
64844;BME280;51310;52.198;5.422;2023-08-01T02:41:26;99616.03;;;14.84;87.92
64844;BME280;51310;52.198;5.422;2023-08-01T02:43:52;99635.78;;;14.92;87.78
64844;BME280;51310;52.198;5.422;2023-08-01T02:46:18;99620.81;;;14.90;87.80
64844;BME280;51310;52.198;5.422;2023-08-01T02:48:44;99623.81;;;14.87;87.53
64844;BME280;51310;52.198;5.422;2023-08-01T02:51:10;99630.88;;;14.88;87.48
64844;BME280;51310;52.198;5.422;2023-08-01T02:53:36;99623.97;;;14.85;87.37
64844;BME280;51310;52.198;5.422;2023-08-01T02:56:02;99616.13;;;14.74;87.07
64844;BME280;51310;52.198;5.422;2023-08-01T02:58:30;99628.50;;;14.85;87.18
64844;BME280;51310;52.198;5.422;2023-08-01T03:00:56;99634.50;;;14.78;87.26
64844;BME280;51310;52.198;5.422;2023-08-01T03:03:22;99607.13;;;14.65;87.03
64844;BME280;51310;52.198;5.422;2023-08-01T03:05:48;99611.13;;;14.61;87.08
64844;BME280;51310;52.198;5.422;2023-08-01T03:08:13;99630.03;;;14.69;87.20
64844;BME280;51310;52.198;5.422;2023-08-01T03:10:39;99632.03;;;14.67;87.35
64844;BME280;51310;52.198;5.422;2023-08-01T03:13:05;99631.31;;;14.65;87.33
64844;BME280;51310;52.198;5.422;2023-08-01T03:15:31;99622.97;;;14.68;87.38
64844;BME280;51310;52.198;5.422;2023-08-01T03:17:58;99615.06;;;14.67;87.39
64844;BME280;51310;52.198;5.422;2023-08-01T03:20:24;99624.66;;;14.69;87.35
64844;BME280;51310;52.198;5.422;2023-08-01T03:22:49;99619.28;;;14.69;87.45
64844;BME280;51310;52.198;5.422;2023-08-01T03:25:16;99620.44;;;14.67;87.59
64844;BME280;51310;52.198;5.422;2023-08-01T03:27:42;99616.91;;;14.66;87.60
64844;BME280;51310;52.198;5.422;2023-08-01T03:30:08;99625.94;;;14.65;87.55
64844;BME280;51310;52.198;5.422;2023-08-01T03:32:35;99615.38;;;14.64;87.57
64844;BME280;51310;52.198;5.422;2023-08-01T03:35:11;99622.75;;;14.62;87.68
64844;BME280;51310;52.198;5.422;2023-08-01T03:37:40;99620.19;;;14.60;87.67
64844;BME280;51310;52.198;5.422;2023-08-01T03:40:07;99627.56;;;14.58;87.67
64844;BME280;51310;52.198;5.422;2023-08-01T03:42:37;99623.44;;;14.54;87.74
64844;BME280;51310;52.198;5.422;2023-08-01T03:45:04;99598.78;;;14.41;87.85
64844;BME280;51310;52.198;5.422;2023-08-01T03:47:31;99615.00;;;14.49;87.76
64844;BME280;51310;52.198;5.422;2023-08-01T03:49:57;99622.22;;;14.48;87.83
64844;BME280;51310;52.198;5.422;2023-08-01T03:52:23;99627.59;;;14.48;87.80
64844;BME280;51310;52.198;5.422;2023-08-01T03:54:54;99624.47;;;14.53;87.91
64844;BME280;51310;52.198;5.422;2023-08-01T03:57:21;99623.91;;;14.59;87.85
64844;BME280;51310;52.198;5.422;2023-08-01T03:59:47;99627.94;;;14.63;88.06
64844;BME280;51310;52.198;5.422;2023-08-01T04:02:13;99634.84;;;14.66;88.01
64844;BME280;51310;52.198;5.422;2023-08-01T04:04:39;99632.56;;;14.71;88.02
64844;BME280;51310;52.198;5.422;2023-08-01T04:07:05;99622.97;;;14.68;88.20
64844;BME280;51310;52.198;5.422;2023-08-01T04:09:31;99608.03;;;14.56;88.02
64844;BME280;51310;52.198;5.422;2023-08-01T04:11:57;99631.31;;;14.65;88.25
64844;BME280;51310;52.198;5.422;2023-08-01T04:14:23;99631.31;;;14.65;88.18
64844;BME280;51310;52.198;5.422;2023-08-01T04:16:49;99632.16;;;14.66;88.16
64844;BME280;51310;52.198;5.422;2023-08-01T04:19:15;99626.97;;;14.64;88.46
64844;BME280;51310;52.198;5.422;2023-08-01T04:21:41;99623.03;;;14.58;88.51
64844;BME280;51310;52.198;5.422;2023-08-01T04:24:06;99620.28;;;14.68;88.40
64844;BME280;51310;52.198;5.422;2023-08-01T04:26:32;99623.50;;;14.72;88.45
64844;BME280;51310;52.198;5.422;2023-08-01T04:28:58;99625.25;;;14.81;88.42
64844;BME280;51310;52.198;5.422;2023-08-01T04:31:24;99600.44;;;14.69;88.46
64844;BME280;51310;52.198;5.422;2023-08-01T04:33:50;99605.22;;;14.75;88.32
64844;BME280;51310;52.198;5.422;2023-08-01T04:36:16;99612.69;;;14.82;88.46
64844;BME280;51310;52.198;5.422;2023-08-01T04:38:42;99591.94;;;14.74;88.52
64844;BME280;51310;52.198;5.422;2023-08-01T04:41:08;99614.03;;;14.86;88.38
64844;BME280;51310;52.198;5.422;2023-08-01T04:43:34;99619.13;;;14.89;88.54
64844;BME280;51310;52.198;5.422;2023-08-01T04:45:59;99599.75;;;14.85;88.48
64844;BME280;51310;52.198;5.422;2023-08-01T04:48:25;99593.16;;;14.80;88.42
64844;BME280;51310;52.198;5.422;2023-08-01T04:50:51;99594.22;;;14.87;88.29
64844;BME280;51310;52.198;5.422;2023-08-01T04:53:17;99613.66;;;14.98;88.31
64844;BME280;51310;52.198;5.422;2023-08-01T04:55:43;99620.94;;;15.06;88.30
64844;BME280;51310;52.198;5.422;2023-08-01T04:58:09;99619.63;;;15.10;88.05
64844;BME280;51310;52.198;5.422;2023-08-01T05:00:36;99617.16;;;15.17;88.02
64844;BME280;51310;52.198;5.422;2023-08-01T05:03:03;99627.06;;;15.34;87.83
64844;BME280;51310;52.198;5.422;2023-08-01T05:05:29;99613.00;;;15.40;87.57
64844;BME280;51310;52.198;5.422;2023-08-01T05:07:54;99639.91;;;15.67;87.41
64844;BME280;51310;52.198;5.422;2023-08-01T05:10:20;99637.28;;;15.75;87.02
64844;BME280;51310;52.198;5.422;2023-08-01T05:12:46;99631.91;;;15.75;86.71
64844;BME280;51310;52.198;5.422;2023-08-01T05:15:12;99622.06;;;15.66;86.50
64844;BME280;51310;52.198;5.422;2023-08-01T05:17:38;99616.78;;;15.56;86.55
64844;BME280;51310;52.198;5.422;2023-08-01T05:20:05;99604.25;;;15.47;86.56
64844;BME280;51310;52.198;5.422;2023-08-01T05:22:31;99633.78;;;15.56;86.83
64844;BME280;51310;52.198;5.422;2023-08-01T05:24:57;99636.09;;;15.51;86.93
64844;BME280;51310;52.198;5.422;2023-08-01T05:27:23;99643.09;;;15.44;86.83
64844;BME280;51310;52.198;5.422;2023-08-01T05:29:49;99619.59;;;15.28;87.19
64844;BME280;51310;52.198;5.422;2023-08-01T05:32:15;99627.22;;;15.33;87.31
64844;BME280;51310;52.198;5.422;2023-08-01T05:34:41;99634.66;;;15.39;87.46
64844;BME280;51310;52.198;5.422;2023-08-01T05:37:07;99618.44;;;15.31;87.32
64844;BME280;51310;52.198;5.422;2023-08-01T05:39:32;99612.84;;;15.24;87.43
64844;BME280;51310;52.198;5.422;2023-08-01T05:41:58;99628.38;;;15.30;87.32
64844;BME280;51310;52.198;5.422;2023-08-01T05:44:24;99643.28;;;15.43;87.39
64844;BME280;51310;52.198;5.422;2023-08-01T05:46:50;99628.59;;;15.37;87.33
64844;BME280;51310;52.198;5.422;2023-08-01T05:49:16;99653.94;;;15.52;87.16
64844;BME280;51310;52.198;5.422;2023-08-01T05:51:42;99627.44;;;15.39;86.91
64844;BME280;51310;52.198;5.422;2023-08-01T05:54:08;99651.59;;;15.49;87.10
64844;BME280;51310;52.198;5.422;2023-08-01T05:56:34;99644.50;;;15.48;87.07
64844;BME280;51310;52.198;5.422;2023-08-01T05:59:00;99651.31;;;15.60;87.11
64844;BME280;51310;52.198;5.422;2023-08-01T06:01:26;99654.06;;;15.69;86.63
64844;BME280;51310;52.198;5.422;2023-08-01T06:03:52;99657.53;;;15.79;86.66
64844;BME280;51310;52.198;5.422;2023-08-01T06:06:18;99655.81;;;15.78;86.29
64844;BME280;51310;52.198;5.422;2023-08-01T06:08:44;99659.53;;;15.77;86.22
64844;BME280;51310;52.198;5.422;2023-08-01T06:11:10;99643.47;;;15.67;85.84
64844;BME280;51310;52.198;5.422;2023-08-01T06:13:36;99667.81;;;15.84;85.68
64844;BME280;51310;52.198;5.422;2023-08-01T06:16:02;99655.03;;;15.86;85.41
64844;BME280;51310;52.198;5.422;2023-08-01T06:18:28;99670.72;;;15.90;85.40
64844;BME280;51310;52.198;5.422;2023-08-01T06:20:54;99679.97;;;15.88;85.15
64844;BME280;51310;52.198;5.422;2023-08-01T06:23:20;99680.59;;;15.81;85.01
64844;BME280;51310;52.198;5.422;2023-08-01T06:25:46;99685.88;;;15.91;84.99
64844;BME280;51310;52.198;5.422;2023-08-01T06:28:12;99682.19;;;15.92;84.80
64844;BME280;51310;52.198;5.422;2023-08-01T06:30:38;99688.63;;;15.99;84.56
64844;BME280;51310;52.198;5.422;2023-08-01T06:33:04;99668.06;;;15.98;84.41
64844;BME280;51310;52.198;5.422;2023-08-01T06:35:29;99672.94;;;16.29;83.94
64844;BME280;51310;52.198;5.422;2023-08-01T06:37:55;99681.06;;;16.37;82.85
64844;BME280;51310;52.198;5.422;2023-08-01T06:40:21;99671.94;;;16.30;82.52
64844;BME280;51310;52.198;5.422;2023-08-01T06:42:47;99684.94;;;16.43;82.76
64844;BME280;51310;52.198;5.422;2023-08-01T06:45:13;99701.84;;;16.53;82.86
64844;BME280;51310;52.198;5.422;2023-08-01T06:47:39;99692.94;;;16.61;82.47
64844;BME280;51310;52.198;5.422;2023-08-01T06:50:05;99691.59;;;16.65;82.25
64844;BME280;51310;52.198;5.422;2023-08-01T06:52:31;99664.28;;;16.60;81.62
64844;BME280;51310;52.198;5.422;2023-08-01T06:54:57;99691.16;;;16.78;81.21
64844;BME280;51310;52.198;5.422;2023-08-01T06:57:23;99665.34;;;16.75;80.79
64844;BME280;51310;52.198;5.422;2023-08-01T06:59:49;99688.84;;;16.99;80.31
64844;BME280;51310;52.198;5.422;2023-08-01T07:02:15;99685.47;;;17.05;79.55
64844;BME280;51310;52.198;5.422;2023-08-01T07:04:41;99666.44;;;17.07;79.57
64844;BME280;51310;52.198;5.422;2023-08-01T07:07:07;99691.06;;;17.20;79.11
64844;BME280;51310;52.198;5.422;2023-08-01T07:09:34;99689.38;;;17.27;78.44
64844;BME280;51310;52.198;5.422;2023-08-01T07:12:00;99691.75;;;17.31;78.02
64844;BME280;51310;52.198;5.422;2023-08-01T07:14:26;99688.03;;;17.40;77.34
64844;BME280;51310;52.198;5.422;2023-08-01T07:16:52;99690.06;;;17.54;77.73
64844;BME280;51310;52.198;5.422;2023-08-01T07:19:18;99685.84;;;17.68;76.94
64844;BME280;51310;52.198;5.422;2023-08-01T07:21:44;99669.97;;;17.57;76.43
64844;BME280;51310;52.198;5.422;2023-08-01T07:24:12;99693.06;;;17.76;75.95
64844;BME280;51310;52.198;5.422;2023-08-01T07:26:39;99679.56;;;17.76;74.85
64844;BME280;51310;52.198;5.422;2023-08-01T07:29:05;99695.25;;;17.97;74.11
64844;BME280;51310;52.198;5.422;2023-08-01T07:31:33;99698.94;;;18.12;72.59
64844;BME280;51310;52.198;5.422;2023-08-01T07:34:00;99688.63;;;18.07;71.81
64844;BME280;51310;52.198;5.422;2023-08-01T07:36:26;99705.16;;;18.21;73.51
64844;BME280;51310;52.198;5.422;2023-08-01T07:38:53;99695.41;;;18.03;72.73
64844;BME280;51310;52.198;5.422;2023-08-01T07:41:21;99715.66;;;18.16;73.63
64844;BME280;51310;52.198;5.422;2023-08-01T07:43:47;99704.53;;;18.02;74.03
64844;BME280;51310;52.198;5.422;2023-08-01T07:46:14;99687.19;;;17.56;74.98
64844;BME280;51310;52.198;5.422;2023-08-01T07:48:40;99691.72;;;17.06;76.80
64844;BME280;51310;52.198;5.422;2023-08-01T07:51:06;99713.03;;;16.67;78.37
64844;BME280;51310;52.198;5.422;2023-08-01T07:53:34;99672.19;;;16.11;80.36
64844;BME280;51310;52.198;5.422;2023-08-01T07:56:00;99711.97;;;16.17;81.38
64844;BME280;51310;52.198;5.422;2023-08-01T07:58:28;99691.47;;;15.98;81.95
64844;BME280;51310;52.198;5.422;2023-08-01T08:00:55;99719.16;;;16.08;81.54
64844;BME280;51310;52.198;5.422;2023-08-01T08:03:21;99709.97;;;16.19;81.55
64844;BME280;51310;52.198;5.422;2023-08-01T08:05:49;99721.09;;;16.24;81.47
64844;BME280;51310;52.198;5.422;2023-08-01T08:08:15;99712.75;;;16.43;81.60
64844;BME280;51310;52.198;5.422;2023-08-01T08:10:41;99722.38;;;16.89;81.30
64844;BME280;51310;52.198;5.422;2023-08-01T08:13:07;99724.13;;;17.22;80.93
64844;BME280;51310;52.198;5.422;2023-08-01T08:15:33;99710.94;;;17.11;80.62
64844;BME280;51310;52.198;5.422;2023-08-01T08:18:01;99726.78;;;16.90;80.77
64844;BME280;51310;52.198;5.422;2023-08-01T08:20:31;99731.66;;;16.52;81.80
64844;BME280;51310;52.198;5.422;2023-08-01T08:23:06;99743.66;;;16.23;82.85
64844;BME280;51310;52.198;5.422;2023-08-01T08:25:32;99738.22;;;16.15;83.75
64844;BME280;51310;52.198;5.422;2023-08-01T08:27:59;99739.88;;;16.08;84.14
64844;BME280;51310;52.198;5.422;2023-08-01T08:30:25;99742.94;;;16.13;83.61
64844;BME280;51310;52.198;5.422;2023-08-01T08:32:50;99737.00;;;16.35;82.69
64844;BME280;51310;52.198;5.422;2023-08-01T08:35:16;99733.88;;;16.56;81.68
64844;BME280;51310;52.198;5.422;2023-08-01T08:37:42;99733.28;;;16.79;81.20
64844;BME280;51310;52.198;5.422;2023-08-01T08:40:09;99719.72;;;16.97;80.32
64844;BME280;51310;52.198;5.422;2023-08-01T08:42:35;99728.88;;;17.28;79.91
64844;BME280;51310;52.198;5.422;2023-08-01T08:45:02;99735.13;;;17.54;77.37
64844;BME280;51310;52.198;5.422;2023-08-01T08:47:31;99716.91;;;17.47;75.55
64844;BME280;51310;52.198;5.422;2023-08-01T08:50:02;99732.59;;;17.60;75.60
64844;BME280;51310;52.198;5.422;2023-08-01T08:52:29;99734.63;;;17.66;75.43
64844;BME280;51310;52.198;5.422;2023-08-01T08:54:56;99731.94;;;17.91;75.24
64844;BME280;51310;52.198;5.422;2023-08-01T08:57:23;99734.28;;;18.02;74.19
64844;BME280;51310;52.198;5.422;2023-08-01T08:59:50;99735.63;;;18.06;74.88
64844;BME280;51310;52.198;5.422;2023-08-01T09:02:18;99738.34;;;17.41;76.08
64844;BME280;51310;52.198;5.422;2023-08-01T09:04:46;99736.25;;;16.94;77.88
64844;BME280;51310;52.198;5.422;2023-08-01T09:07:13;99747.03;;;16.94;78.88
64844;BME280;51310;52.198;5.422;2023-08-01T09:09:41;99727.50;;;17.08;77.40
64844;BME280;51310;52.198;5.422;2023-08-01T09:12:08;99743.38;;;17.36;76.36
64844;BME280;51310;52.198;5.422;2023-08-01T09:14:35;99749.47;;;17.38;75.35
64844;BME280;51310;52.198;5.422;2023-08-01T09:17:08;99757.59;;;17.46;73.45
64844;BME280;51310;52.198;5.422;2023-08-01T09:19:34;99749.50;;;17.54;74.33
64844;BME280;51310;52.198;5.422;2023-08-01T09:22:02;99756.91;;;17.77;73.57
64844;BME280;51310;52.198;5.422;2023-08-01T09:24:35;99755.91;;;17.61;73.32
64844;BME280;51310;52.198;5.422;2023-08-01T09:27:04;99772.59;;;17.48;73.29
64844;BME280;51310;52.198;5.422;2023-08-01T09:29:30;99759.59;;;17.60;73.79
64844;BME280;51310;52.198;5.422;2023-08-01T09:31:59;99765.03;;;17.85;72.70
64844;BME280;51310;52.198;5.422;2023-08-01T09:34:27;99743.72;;;17.74;71.99
64844;BME280;51310;52.198;5.422;2023-08-01T09:37:00;99777.69;;;18.01;71.40
64844;BME280;51310;52.198;5.422;2023-08-01T09:39:26;99772.78;;;18.13;71.29
64844;BME280;51310;52.198;5.422;2023-08-01T09:42:00;99774.06;;;18.41;71.72
64844;BME280;51310;52.198;5.422;2023-08-01T09:44:29;99758.06;;;18.71;70.39
64844;BME280;51310;52.198;5.422;2023-08-01T09:47:01;99778.63;;;18.97;68.77
64844;BME280;51310;52.198;5.422;2023-08-01T09:49:30;99750.06;;;18.86;69.86
64844;BME280;51310;52.198;5.422;2023-08-01T09:51:58;99784.31;;;19.10;70.01
64844;BME280;51310;52.198;5.422;2023-08-01T09:54:25;99786.81;;;19.11;69.42
64844;BME280;51310;52.198;5.422;2023-08-01T09:56:53;99779.22;;;19.07;68.44
64844;BME280;51310;52.198;5.422;2023-08-01T09:59:24;99786.28;;;19.16;69.28
64844;BME280;51310;52.198;5.422;2023-08-01T10:01:54;99784.97;;;19.43;69.19
64844;BME280;51310;52.198;5.422;2023-08-01T10:04:30;99751.06;;;19.16;68.44
64844;BME280;51310;52.198;5.422;2023-08-01T10:07:05;99793.38;;;19.25;68.32
64844;BME280;51310;52.198;5.422;2023-08-01T10:09:34;99785.94;;;18.88;68.92
64844;BME280;51310;52.198;5.422;2023-08-01T10:12:02;99786.22;;;18.54;69.35
64844;BME280;51310;52.198;5.422;2023-08-01T10:14:32;99797.56;;;18.49;69.86
64844;BME280;51310;52.198;5.422;2023-08-01T10:16:58;99798.78;;;18.30;69.64
64844;BME280;51310;52.198;5.422;2023-08-01T10:19:25;99775.34;;;17.81;69.68
64844;BME280;51310;52.198;5.422;2023-08-01T10:21:52;99801.19;;;18.08;69.89
64844;BME280;51310;52.198;5.422;2023-08-01T10:24:19;99783.56;;;18.21;68.79
64844;BME280;51310;52.198;5.422;2023-08-01T10:26:46;99804.13;;;18.55;68.87
64844;BME280;51310;52.198;5.422;2023-08-01T10:29:12;99806.31;;;18.59;68.60
64844;BME280;51310;52.198;5.422;2023-08-01T10:31:38;99809.19;;;18.58;68.56
64844;BME280;51310;52.198;5.422;2023-08-01T10:34:13;99809.94;;;18.35;67.77
64844;BME280;51310;52.198;5.422;2023-08-01T10:36:39;99804.84;;;18.40;67.55
64844;BME280;51310;52.198;5.422;2023-08-01T10:39:05;99826.75;;;18.70;66.92
64844;BME280;51310;52.198;5.422;2023-08-01T10:41:34;99821.69;;;18.67;66.01
64844;BME280;51310;52.198;5.422;2023-08-01T10:44:11;99819.38;;;18.47;66.89
64844;BME280;51310;52.198;5.422;2023-08-01T10:46:52;99828.00;;;18.43;67.49
64844;BME280;51310;52.198;5.422;2023-08-01T10:49:19;99825.09;;;18.52;66.27
64844;BME280;51310;52.198;5.422;2023-08-01T10:51:49;99832.22;;;18.54;66.48
64844;BME280;51310;52.198;5.422;2023-08-01T10:54:23;99815.97;;;18.54;64.15
64844;BME280;51310;52.198;5.422;2023-08-01T10:56:58;99827.06;;;18.75;65.59
64844;BME280;51310;52.198;5.422;2023-08-01T10:59:25;99836.81;;;19.01;64.74
64844;BME280;51310;52.198;5.422;2023-08-01T11:01:53;99822.91;;;19.04;64.49
64844;BME280;51310;52.198;5.422;2023-08-01T11:04:23;99834.66;;;18.88;63.69
64844;BME280;51310;52.198;5.422;2023-08-01T11:06:54;99812.16;;;18.87;64.50
64844;BME280;51310;52.198;5.422;2023-08-01T11:09:25;99837.03;;;19.22;64.81
64844;BME280;51310;52.198;5.422;2023-08-01T11:11:56;99834.28;;;18.99;65.08
64844;BME280;51310;52.198;5.422;2023-08-01T11:14:28;99846.19;;;19.21;65.69
64844;BME280;51310;52.198;5.422;2023-08-01T11:16:56;99843.69;;;19.43;64.83
64844;BME280;51310;52.198;5.422;2023-08-01T11:19:26;99831.19;;;19.42;63.50
64844;BME280;51310;52.198;5.422;2023-08-01T11:21:54;99843.78;;;19.58;64.36
64844;BME280;51310;52.198;5.422;2023-08-01T11:24:23;99856.66;;;19.87;62.84
64844;BME280;51310;52.198;5.422;2023-08-01T11:26:53;99825.91;;;19.94;62.62
64844;BME280;51310;52.198;5.422;2023-08-01T11:29:20;99837.47;;;20.11;62.20
64844;BME280;51310;52.198;5.422;2023-08-01T11:31:58;99831.22;;;20.11;61.80
64844;BME280;51310;52.198;5.422;2023-08-01T11:34:25;99863.03;;;19.94;61.07
64844;BME280;51310;52.198;5.422;2023-08-01T11:36:52;99840.72;;;19.61;61.45
64844;BME280;51310;52.198;5.422;2023-08-01T11:39:19;99871.22;;;19.86;61.09
64844;BME280;51310;52.198;5.422;2023-08-01T11:41:47;99859.31;;;19.95;60.15
64844;BME280;51310;52.198;5.422;2023-08-01T11:44:13;99857.13;;;20.13;59.36
64844;BME280;51310;52.198;5.422;2023-08-01T11:46:39;99858.47;;;20.32;60.17
64844;BME280;51310;52.198;5.422;2023-08-01T11:49:07;99864.19;;;20.37;59.81
64844;BME280;51310;52.198;5.422;2023-08-01T11:51:42;99867.03;;;20.06;60.44
64844;BME280;51310;52.198;5.422;2023-08-01T11:54:10;99846.63;;;19.64;59.37
64844;BME280;51310;52.198;5.422;2023-08-01T11:56:39;99852.03;;;19.41;58.68
64844;BME280;51310;52.198;5.422;2023-08-01T11:59:15;99858.28;;;19.42;59.51
64844;BME280;51310;52.198;5.422;2023-08-01T12:01:46;99873.75;;;19.56;60.79
64844;BME280;51310;52.198;5.422;2023-08-01T12:04:27;99878.09;;;19.73;59.57
64844;BME280;51310;52.198;5.422;2023-08-01T12:06:53;99865.69;;;20.02;60.18
64844;BME280;51310;52.198;5.422;2023-08-01T12:09:21;99865.13;;;20.30;58.42
64844;BME280;51310;52.198;5.422;2023-08-01T12:11:47;99895.19;;;20.43;57.96
64844;BME280;51310;52.198;5.422;2023-08-01T12:14:25;99890.03;;;20.10;57.92
64844;BME280;51310;52.198;5.422;2023-08-01T12:16:51;99885.59;;;20.17;59.19
64844;BME280;51310;52.198;5.422;2023-08-01T12:19:18;99883.22;;;20.14;59.70
64844;BME280;51310;52.198;5.422;2023-08-01T12:21:45;99883.22;;;19.91;59.65
64844;BME280;51310;52.198;5.422;2023-08-01T12:24:12;99882.06;;;19.86;60.11
64844;BME280;51310;52.198;5.422;2023-08-01T12:26:38;99888.91;;;19.82;60.47
64844;BME280;51310;52.198;5.422;2023-08-01T12:29:04;99893.53;;;19.73;61.18
64844;BME280;51310;52.198;5.422;2023-08-01T12:31:30;99890.09;;;19.48;61.78
64844;BME280;51310;52.198;5.422;2023-08-01T12:33:57;99867.81;;;19.29;62.41
64844;BME280;51310;52.198;5.422;2023-08-01T12:36:23;99894.44;;;19.57;62.58
64844;BME280;51310;52.198;5.422;2023-08-01T12:38:50;99896.25;;;19.96;61.09
64844;BME280;51310;52.198;5.422;2023-08-01T12:41:16;99887.13;;;20.12;60.31
64844;BME280;51310;52.198;5.422;2023-08-01T12:43:41;99874.38;;;19.98;60.04
64844;BME280;51310;52.198;5.422;2023-08-01T12:46:08;99894.19;;;19.98;60.11
64844;BME280;51310;52.198;5.422;2023-08-01T12:48:34;99883.06;;;19.93;60.19
64844;BME280;51310;52.198;5.422;2023-08-01T12:51:00;99894.56;;;19.95;59.24
64844;BME280;51310;52.198;5.422;2023-08-01T12:53:26;99890.28;;;19.78;58.99
64844;BME280;51310;52.198;5.422;2023-08-01T12:55:52;99908.13;;;19.95;59.10
64844;BME280;51310;52.198;5.422;2023-08-01T12:58:18;99887.16;;;19.89;58.94